Terminal Aerodrome Forecast
Issued by NWS Albany, NY

Home | Current Version | Previous Version | Text Only | Print | Product List | Glossary On
Versions: 1 2 3 4 5 6 7 8 9 10 11 12 13 14 15 16 17 18 19 20 21
437
FTUS41 KALY 270534
TAFPOU
TAF
KPOU 270534Z 2706/2806 VRB03KT P6SM BKN050 BKN100
     FM271200 23006KT P6SM VCSH SCT020 OVC040
      TEMPO 2715/2719 3SM -SHRA BR SCT010 OVC020
     FM271900 25006KT P6SM VCSH SCT020 BKN040 BKN080
     FM280000 VRB03KT 4SM BR VCSH BKN020 BKN050=

USA.gov is the U.S. government's official web portal to all federal, state and local government web resources and services.